sensor_id;sensor_type;location;lat;lon;timestamp;P1;durP1;ratioP1;P2;durP2;ratioP2
33266;SDS011;19638;49.080;11.896;2023-07-29T00:02:13;3.75;;;2.10;;
33266;SDS011;19638;49.080;11.896;2023-07-29T00:06:16;5.03;;;2.38;;
33266;SDS011;19638;49.080;11.896;2023-07-29T00:10:23;3.72;;;2.25;;
33266;SDS011;19638;49.080;11.896;2023-07-29T00:14:26;2.85;;;2.35;;
33266;SDS011;19638;49.080;11.896;2023-07-29T00:18:35;8.20;;;2.60;;
33266;SDS011;19638;49.080;11.896;2023-07-29T00:22:39;3.08;;;2.33;;
33266;SDS011;19638;49.080;11.896;2023-07-29T00:26:46;2.53;;;2.28;;
33266;SDS011;19638;49.080;11.896;2023-07-29T00:30:51;3.90;;;2.42;;
33266;SDS011;19638;49.080;11.896;2023-07-29T00:34:59;5.82;;;2.53;;
33266;SDS011;19638;49.080;11.896;2023-07-29T00:39:11;7.32;;;2.65;;
33266;SDS011;19638;49.080;11.896;2023-07-29T00:43:15;3.28;;;2.72;;
33266;SDS011;19638;49.080;11.896;2023-07-29T00:47:24;9.05;;;2.85;;
33266;SDS011;19638;49.080;11.896;2023-07-29T00:51:28;6.03;;;2.95;;
33266;SDS011;19638;49.080;11.896;2023-07-29T00:55:31;4.85;;;2.95;;
33266;SDS011;19638;49.080;11.896;2023-07-29T00:59:37;5.22;;;2.42;;
33266;SDS011;19638;49.080;11.896;2023-07-29T01:03:41;7.28;;;3.17;;
33266;SDS011;19638;49.080;11.896;2023-07-29T01:07:49;5.47;;;3.20;;
33266;SDS011;19638;49.080;11.896;2023-07-29T01:11:57;6.78;;;3.83;;
33266;SDS011;19638;49.080;11.896;2023-07-29T01:16:12;8.48;;;3.67;;
33266;SDS011;19638;49.080;11.896;2023-07-29T01:20:21;7.93;;;3.90;;
33266;SDS011;19638;49.080;11.896;2023-07-29T01:24:29;7.22;;;3.70;;
33266;SDS011;19638;49.080;11.896;2023-07-29T01:28:32;5.03;;;3.90;;
33266;SDS011;19638;49.080;11.896;2023-07-29T01:32:37;5.15;;;3.97;;
33266;SDS011;19638;49.080;11.896;2023-07-29T01:36:46;6.82;;;3.90;;
33266;SDS011;19638;49.080;11.896;2023-07-29T01:40:54;7.50;;;4.20;;
33266;SDS011;19638;49.080;11.896;2023-07-29T01:44:58;5.57;;;3.92;;
33266;SDS011;19638;49.080;11.896;2023-07-29T01:49:03;9.63;;;4.55;;
33266;SDS011;19638;49.080;11.896;2023-07-29T01:53:06;9.82;;;4.90;;
33266;SDS011;19638;49.080;11.896;2023-07-29T01:57:11;7.20;;;4.28;;
33266;SDS011;19638;49.080;11.896;2023-07-29T02:01:14;8.23;;;4.13;;
33266;SDS011;19638;49.080;11.896;2023-07-29T02:05:17;9.32;;;4.93;;
33266;SDS011;19638;49.080;11.896;2023-07-29T02:09:20;12.50;;;4.93;;
33266;SDS011;19638;49.080;11.896;2023-07-29T02:13:25;9.75;;;4.82;;
33266;SDS011;19638;49.080;11.896;2023-07-29T02:17:31;18.58;;;5.43;;
33266;SDS011;19638;49.080;11.896;2023-07-29T02:21:34;12.90;;;4.47;;
33266;SDS011;19638;49.080;11.896;2023-07-29T02:25:37;10.57;;;5.05;;
33266;SDS011;19638;49.080;11.896;2023-07-29T02:29:42;12.15;;;5.40;;
33266;SDS011;19638;49.080;11.896;2023-07-29T02:33:46;14.23;;;5.53;;
33266;SDS011;19638;49.080;11.896;2023-07-29T02:37:49;10.63;;;5.35;;
33266;SDS011;19638;49.080;11.896;2023-07-29T02:41:54;17.90;;;5.57;;
33266;SDS011;19638;49.080;11.896;2023-07-29T02:45:58;11.95;;;5.40;;
33266;SDS011;19638;49.080;11.896;2023-07-29T02:50:04;17.50;;;5.63;;
33266;SDS011;19638;49.080;11.896;2023-07-29T02:54:08;18.38;;;5.97;;
33266;SDS011;19638;49.080;11.896;2023-07-29T02:58:13;11.80;;;5.18;;
33266;SDS011;19638;49.080;11.896;2023-07-29T03:02:22;14.43;;;5.28;;
33266;SDS011;19638;49.080;11.896;2023-07-29T03:06:26;101.68;;;8.30;;
33266;SDS011;19638;49.080;11.896;2023-07-29T03:10:29;90.47;;;7.47;;
33266;SDS011;19638;49.080;11.896;2023-07-29T03:14:34;33.22;;;6.05;;
33266;SDS011;19638;49.080;11.896;2023-07-29T03:18:38;16.92;;;5.75;;
33266;SDS011;19638;49.080;11.896;2023-07-29T03:22:42;131.52;;;5.63;;
33266;SDS011;19638;49.080;11.896;2023-07-29T03:26:48;334.13;;;13.13;;
33266;SDS011;19638;49.080;11.896;2023-07-29T03:30:55;146.43;;;8.55;;
33266;SDS011;19638;49.080;11.896;2023-07-29T03:35:03;32.47;;;5.70;;
33266;SDS011;19638;49.080;11.896;2023-07-29T03:39:07;71.32;;;6.25;;
33266;SDS011;19638;49.080;11.896;2023-07-29T03:43:11;25.95;;;5.63;;
33266;SDS011;19638;49.080;11.896;2023-07-29T03:47:14;123.47;;;7.13;;
33266;SDS011;19638;49.080;11.896;2023-07-29T03:51:19;218.43;;;8.70;;
33266;SDS011;19638;49.080;11.896;2023-07-29T03:55:27;144.90;;;8.38;;
33266;SDS011;19638;49.080;11.896;2023-07-29T03:59:34;102.50;;;6.85;;
33266;SDS011;19638;49.080;11.896;2023-07-29T04:03:44;121.18;;;7.00;;
33266;SDS011;19638;49.080;11.896;2023-07-29T04:07:48;94.13;;;6.35;;
33266;SDS011;19638;49.080;11.896;2023-07-29T04:11:52;85.72;;;6.00;;
33266;SDS011;19638;49.080;11.896;2023-07-29T04:15:57;119.10;;;7.63;;
33266;SDS011;19638;49.080;11.896;2023-07-29T04:20:04;37.97;;;5.63;;
33266;SDS011;19638;49.080;11.896;2023-07-29T04:24:10;39.20;;;6.05;;
33266;SDS011;19638;49.080;11.896;2023-07-29T04:28:14;23.45;;;5.72;;
33266;SDS011;19638;49.080;11.896;2023-07-29T04:32:18;24.10;;;7.82;;
33266;SDS011;19638;49.080;11.896;2023-07-29T04:36:28;30.90;;;8.52;;
33266;SDS011;19638;49.080;11.896;2023-07-29T04:40:33;34.95;;;10.18;;
33266;SDS011;19638;49.080;11.896;2023-07-29T04:44:37;36.20;;;10.90;;
33266;SDS011;19638;49.080;11.896;2023-07-29T04:48:45;37.53;;;10.10;;
33266;SDS011;19638;49.080;11.896;2023-07-29T04:52:48;47.33;;;10.50;;
33266;SDS011;19638;49.080;11.896;2023-07-29T04:56:56;41.40;;;10.90;;
33266;SDS011;19638;49.080;11.896;2023-07-29T05:01:02;29.88;;;9.98;;
33266;SDS011;19638;49.080;11.896;2023-07-29T05:05:09;39.90;;;11.77;;
33266;SDS011;19638;49.080;11.896;2023-07-29T05:09:16;37.67;;;11.43;;
33266;SDS011;19638;49.080;11.896;2023-07-29T05:13:21;41.33;;;11.98;;
33266;SDS011;19638;49.080;11.896;2023-07-29T05:17:25;40.28;;;11.52;;
33266;SDS011;19638;49.080;11.896;2023-07-29T05:21:28;42.55;;;12.43;;
33266;SDS011;19638;49.080;11.896;2023-07-29T05:25:34;46.55;;;14.02;;
33266;SDS011;19638;49.080;11.896;2023-07-29T05:29:38;47.42;;;13.30;;
33266;SDS011;19638;49.080;11.896;2023-07-29T05:33:43;44.85;;;13.77;;
33266;SDS011;19638;49.080;11.896;2023-07-29T05:37:49;47.97;;;14.35;;
33266;SDS011;19638;49.080;11.896;2023-07-29T05:41:53;33.28;;;12.70;;
33266;SDS011;19638;49.080;11.896;2023-07-29T05:45:57;34.78;;;12.57;;
33266;SDS011;19638;49.080;11.896;2023-07-29T05:50:03;26.65;;;10.63;;
33266;SDS011;19638;49.080;11.896;2023-07-29T05:54:09;25.92;;;9.73;;
33266;SDS011;19638;49.080;11.896;2023-07-29T05:58:20;28.20;;;10.50;;
33266;SDS011;19638;49.080;11.896;2023-07-29T06:02:26;21.55;;;9.57;;
33266;SDS011;19638;49.080;11.896;2023-07-29T06:06:30;27.27;;;10.48;;
33266;SDS011;19638;49.080;11.896;2023-07-29T06:10:35;21.92;;;9.88;;
33266;SDS011;19638;49.080;11.896;2023-07-29T06:14:38;26.00;;;10.25;;
33266;SDS011;19638;49.080;11.896;2023-07-29T06:18:47;27.50;;;9.57;;
33266;SDS011;19638;49.080;11.896;2023-07-29T06:22:50;24.77;;;10.25;;
33266;SDS011;19638;49.080;11.896;2023-07-29T06:26:53;30.00;;;10.77;;
33266;SDS011;19638;49.080;11.896;2023-07-29T06:30:56;22.88;;;10.82;;
33266;SDS011;19638;49.080;11.896;2023-07-29T06:35:04;23.55;;;9.30;;
33266;SDS011;19638;49.080;11.896;2023-07-29T06:39:09;17.77;;;8.98;;
33266;SDS011;19638;49.080;11.896;2023-07-29T06:43:13;14.23;;;8.57;;
33266;SDS011;19638;49.080;11.896;2023-07-29T06:47:20;15.13;;;8.52;;
33266;SDS011;19638;49.080;11.896;2023-07-29T06:51:27;12.75;;;8.27;;
33266;SDS011;19638;49.080;11.896;2023-07-29T06:55:34;14.18;;;9.05;;
33266;SDS011;19638;49.080;11.896;2023-07-29T06:59:39;12.23;;;7.65;;
33266;SDS011;19638;49.080;11.896;2023-07-29T07:03:44;13.30;;;6.93;;
33266;SDS011;19638;49.080;11.896;2023-07-29T07:07:49;9.73;;;6.40;;
33266;SDS011;19638;49.080;11.896;2023-07-29T07:11:52;10.82;;;6.38;;
33266;SDS011;19638;49.080;11.896;2023-07-29T07:15:55;11.23;;;6.43;;
33266;SDS011;19638;49.080;11.896;2023-07-29T07:20:01;8.20;;;5.70;;
33266;SDS011;19638;49.080;11.896;2023-07-29T07:24:08;12.77;;;5.72;;
33266;SDS011;19638;49.080;11.896;2023-07-29T07:28:12;8.35;;;5.70;;
33266;SDS011;19638;49.080;11.896;2023-07-29T07:32:15;6.50;;;5.22;;
33266;SDS011;19638;49.080;11.896;2023-07-29T07:36:18;6.65;;;4.95;;
33266;SDS011;19638;49.080;11.896;2023-07-29T07:40:23;10.15;;;5.03;;
33266;SDS011;19638;49.080;11.896;2023-07-29T07:44:28;5.82;;;5.22;;
33266;SDS011;19638;49.080;11.896;2023-07-29T07:48:34;5.93;;;4.45;;
33266;SDS011;19638;49.080;11.896;2023-07-29T07:52:38;7.20;;;3.97;;
33266;SDS011;19638;49.080;11.896;2023-07-29T07:56:43;5.22;;;4.38;;
33266;SDS011;19638;49.080;11.896;2023-07-29T08:00:46;8.43;;;5.10;;
33266;SDS011;19638;49.080;11.896;2023-07-29T08:04:49;15.82;;;6.57;;
33266;SDS011;19638;49.080;11.896;2023-07-29T08:08:58;10.27;;;6.13;;
33266;SDS011;19638;49.080;11.896;2023-07-29T08:13:04;8.00;;;4.63;;
33266;SDS011;19638;49.080;11.896;2023-07-29T08:17:07;7.70;;;3.53;;
33266;SDS011;19638;49.080;11.896;2023-07-29T08:21:10;10.48;;;3.92;;
33266;SDS011;19638;49.080;11.896;2023-07-29T08:25:13;7.70;;;4.18;;
33266;SDS011;19638;49.080;11.896;2023-07-29T08:29:18;8.60;;;4.60;;
33266;SDS011;19638;49.080;11.896;2023-07-29T08:33:21;8.93;;;5.03;;
33266;SDS011;19638;49.080;11.896;2023-07-29T08:37:24;7.03;;;4.53;;
33266;SDS011;19638;49.080;11.896;2023-07-29T08:41:31;9.45;;;5.38;;
33266;SDS011;19638;49.080;11.896;2023-07-29T08:45:41;7.88;;;4.40;;
33266;SDS011;19638;49.080;11.896;2023-07-29T08:49:47;5.68;;;3.90;;
33266;SDS011;19638;49.080;11.896;2023-07-29T08:53:53;4.50;;;3.10;;
33266;SDS011;19638;49.080;11.896;2023-07-29T08:57:56;5.22;;;3.22;;
33266;SDS011;19638;49.080;11.896;2023-07-29T09:02:02;5.13;;;3.55;;
33266;SDS011;19638;49.080;11.896;2023-07-29T09:06:08;5.28;;;3.90;;
33266;SDS011;19638;49.080;11.896;2023-07-29T09:10:12;5.63;;;4.22;;
33266;SDS011;19638;49.080;11.896;2023-07-29T09:14:17;5.22;;;4.35;;
33266;SDS011;19638;49.080;11.896;2023-07-29T09:18:21;4.85;;;4.25;;
33266;SDS011;19638;49.080;11.896;2023-07-29T09:22:25;3.97;;;3.65;;
33266;SDS011;19638;49.080;11.896;2023-07-29T09:26:29;4.55;;;3.45;;
33266;SDS011;19638;49.080;11.896;2023-07-29T09:30:33;5.70;;;3.70;;
33266;SDS011;19638;49.080;11.896;2023-07-29T09:34:38;4.65;;;3.80;;
33266;SDS011;19638;49.080;11.896;2023-07-29T09:38:53;3.95;;;3.40;;
33266;SDS011;19638;49.080;11.896;2023-07-29T09:43:01;4.55;;;3.55;;
33266;SDS011;19638;49.080;11.896;2023-07-29T09:47:05;6.95;;;3.35;;
33266;SDS011;19638;49.080;11.896;2023-07-29T09:51:13;4.13;;;3.13;;
33266;SDS011;19638;49.080;11.896;2023-07-29T09:55:17;5.85;;;3.10;;
33266;SDS011;19638;49.080;11.896;2023-07-29T09:59:24;3.75;;;3.08;;
33266;SDS011;19638;49.080;11.896;2023-07-29T10:03:34;7.80;;;3.47;;
33266;SDS011;19638;49.080;11.896;2023-07-29T10:07:43;6.35;;;4.35;;
33266;SDS011;19638;49.080;11.896;2023-07-29T10:11:48;5.88;;;4.03;;
33266;SDS011;19638;49.080;11.896;2023-07-29T10:15:54;8.02;;;3.85;;
33266;SDS011;19638;49.080;11.896;2023-07-29T10:19:59;6.88;;;5.03;;
33266;SDS011;19638;49.080;11.896;2023-07-29T10:24:05;6.65;;;5.03;;
33266;SDS011;19638;49.080;11.896;2023-07-29T10:28:13;9.13;;;6.00;;
33266;SDS011;19638;49.080;11.896;2023-07-29T10:32:24;7.13;;;4.40;;
33266;SDS011;19638;49.080;11.896;2023-07-29T10:36:29;6.43;;;4.45;;
33266;SDS011;19638;49.080;11.896;2023-07-29T10:40:46;5.07;;;3.45;;
33266;SDS011;19638;49.080;11.896;2023-07-29T10:44:51;5.10;;;3.15;;
33266;SDS011;19638;49.080;11.896;2023-07-29T10:48:57;5.97;;;3.22;;
33266;SDS011;19638;49.080;11.896;2023-07-29T10:53:00;3.67;;;3.00;;
33266;SDS011;19638;49.080;11.896;2023-07-29T10:57:05;3.30;;;3.00;;
33266;SDS011;19638;49.080;11.896;2023-07-29T11:01:12;3.10;;;2.30;;
33266;SDS011;19638;49.080;11.896;2023-07-29T11:05:17;2.95;;;2.20;;
33266;SDS011;19638;49.080;11.896;2023-07-29T11:09:38;2.22;;;2.13;;
33266;SDS011;19638;49.080;11.896;2023-07-29T11:13:45;2.60;;;1.88;;
33266;SDS011;19638;49.080;11.896;2023-07-29T11:17:52;2.00;;;1.90;;
33266;SDS011;19638;49.080;11.896;2023-07-29T11:21:56;4.05;;;2.03;;
33266;SDS011;19638;49.080;11.896;2023-07-29T11:26:01;2.05;;;1.95;;
33266;SDS011;19638;49.080;11.896;2023-07-29T11:30:11;2.30;;;2.08;;
33266;SDS011;19638;49.080;11.896;2023-07-29T11:34:15;1.85;;;1.73;;
33266;SDS011;19638;49.080;11.896;2023-07-29T11:38:23;2.28;;;2.00;;
33266;SDS011;19638;49.080;11.896;2023-07-29T11:42:26;1.95;;;1.70;;
33266;SDS011;19638;49.080;11.896;2023-07-29T11:46:32;3.78;;;2.25;;
33266;SDS011;19638;49.080;11.896;2023-07-29T11:50:49;3.58;;;1.98;;
33266;SDS011;19638;49.080;11.896;2023-07-29T11:54:59;2.75;;;1.52;;
33266;SDS011;19638;49.080;11.896;2023-07-29T11:59:03;2.60;;;1.77;;
33266;SDS011;19638;49.080;11.896;2023-07-29T12:03:08;2.10;;;2.00;;
33266;SDS011;19638;49.080;11.896;2023-07-29T12:07:12;1.98;;;1.60;;
33266;SDS011;19638;49.080;11.896;2023-07-29T12:11:16;1.60;;;1.50;;
33266;SDS011;19638;49.080;11.896;2023-07-29T12:15:23;1.60;;;1.50;;
33266;SDS011;19638;49.080;11.896;2023-07-29T12:19:32;2.65;;;1.80;;
33266;SDS011;19638;49.080;11.896;2023-07-29T12:23:36;2.20;;;2.00;;
33266;SDS011;19638;49.080;11.896;2023-07-29T12:27:42;2.20;;;2.00;;
33266;SDS011;19638;49.080;11.896;2023-07-29T12:31:46;2.45;;;1.90;;
33266;SDS011;19638;49.080;11.896;2023-07-29T12:35:53;2.03;;;1.85;;
33266;SDS011;19638;49.080;11.896;2023-07-29T12:39:57;2.00;;;1.90;;
33266;SDS011;19638;49.080;11.896;2023-07-29T12:44:03;2.15;;;1.70;;
33266;SDS011;19638;49.080;11.896;2023-07-29T12:48:11;2.22;;;2.10;;
33266;SDS011;19638;49.080;11.896;2023-07-29T12:52:16;3.22;;;1.80;;
33266;SDS011;19638;49.080;11.896;2023-07-29T12:56:20;1.88;;;1.77;;
33266;SDS011;19638;49.080;11.896;2023-07-29T13:00:23;1.80;;;1.63;;
33266;SDS011;19638;49.080;11.896;2023-07-29T13:04:28;2.20;;;2.00;;
33266;SDS011;19638;49.080;11.896;2023-07-29T13:08:35;2.10;;;1.90;;
33266;SDS011;19638;49.080;11.896;2023-07-29T13:12:38;2.53;;;2.00;;
33266;SDS011;19638;49.080;11.896;2023-07-29T13:16:42;2.53;;;2.13;;
33266;SDS011;19638;49.080;11.896;2023-07-29T13:20:45;3.35;;;2.15;;
33266;SDS011;19638;49.080;11.896;2023-07-29T13:24:49;1.80;;;1.70;;
33266;SDS011;19638;49.080;11.896;2023-07-29T13:29:00;2.60;;;1.90;;
33266;SDS011;19638;49.080;11.896;2023-07-29T13:33:10;2.67;;;1.90;;
33266;SDS011;19638;49.080;11.896;2023-07-29T13:37:13;1.77;;;1.67;;
33266;SDS011;19638;49.080;11.896;2023-07-29T13:41:20;1.95;;;1.85;;
33266;SDS011;19638;49.080;11.896;2023-07-29T13:45:23;1.92;;;1.83;;
33266;SDS011;19638;49.080;11.896;2023-07-29T13:49:28;2.28;;;1.60;;
33266;SDS011;19638;49.080;11.896;2023-07-29T13:53:31;1.80;;;1.70;;
33266;SDS011;19638;49.080;11.896;2023-07-29T13:57:39;3.35;;;1.90;;
33266;SDS011;19638;49.080;11.896;2023-07-29T14:01:42;1.95;;;1.80;;
33266;SDS011;19638;49.080;11.896;2023-07-29T14:05:47;4.90;;;1.65;;
33266;SDS011;19638;49.080;11.896;2023-07-29T14:09:50;1.63;;;1.60;;
33266;SDS011;19638;49.080;11.896;2023-07-29T14:13:58;1.70;;;1.60;;
33266;SDS011;19638;49.080;11.896;2023-07-29T14:18:08;1.88;;;1.77;;
33266;SDS011;19638;49.080;11.896;2023-07-29T14:22:11;1.77;;;1.70;;
33266;SDS011;19638;49.080;11.896;2023-07-29T14:26:16;2.00;;;1.90;;
33266;SDS011;19638;49.080;11.896;2023-07-29T14:30:21;2.10;;;2.00;;
33266;SDS011;19638;49.080;11.896;2023-07-29T14:34:27;1.80;;;1.70;;
33266;SDS011;19638;49.080;11.896;2023-07-29T14:38:30;1.90;;;1.80;;
33266;SDS011;19638;49.080;11.896;2023-07-29T14:42:36;1.42;;;1.42;;
33266;SDS011;19638;49.080;11.896;2023-07-29T14:46:45;2.38;;;1.67;;
33266;SDS011;19638;49.080;11.896;2023-07-29T14:50:48;1.75;;;1.65;;
33266;SDS011;19638;49.080;11.896;2023-07-29T14:54:52;1.75;;;1.65;;
33266;SDS011;19638;49.080;11.896;2023-07-29T14:58:58;1.38;;;1.38;;
33266;SDS011;19638;49.080;11.896;2023-07-29T15:03:03;1.33;;;1.33;;
33266;SDS011;19638;49.080;11.896;2023-07-29T15:07:10;1.70;;;1.60;;
33266;SDS011;19638;49.080;11.896;2023-07-29T15:11:16;1.92;;;1.75;;
33266;SDS011;19638;49.080;11.896;2023-07-29T15:15:23;1.55;;;1.55;;
33266;SDS011;19638;49.080;11.896;2023-07-29T15:19:29;1.60;;;1.60;;
33266;SDS011;19638;49.080;11.896;2023-07-29T15:23:32;1.45;;;1.35;;
33266;SDS011;19638;49.080;11.896;2023-07-29T15:27:35;1.95;;;1.85;;
33266;SDS011;19638;49.080;11.896;2023-07-29T15:31:40;1.73;;;1.63;;
33266;SDS011;19638;49.080;11.896;2023-07-29T15:35:44;1.48;;;1.38;;
33266;SDS011;19638;49.080;11.896;2023-07-29T15:39:51;2.47;;;1.70;;
33266;SDS011;19638;49.080;11.896;2023-07-29T15:43:54;2.80;;;1.70;;
33266;SDS011;19638;49.080;11.896;2023-07-29T15:47:57;2.00;;;1.90;;
33266;SDS011;19638;49.080;11.896;2023-07-29T15:52:05;1.90;;;1.77;;
33266;SDS011;19638;49.080;11.896;2023-07-29T15:56:13;1.95;;;1.85;;
33266;SDS011;19638;49.080;11.896;2023-07-29T16:00:17;1.60;;;1.50;;
33266;SDS011;19638;49.080;11.896;2023-07-29T16:04:21;1.90;;;1.80;;
33266;SDS011;19638;49.080;11.896;2023-07-29T16:08:26;2.15;;;2.00;;
33266;SDS011;19638;49.080;11.896;2023-07-29T16:12:30;6.70;;;2.05;;
33266;SDS011;19638;49.080;11.896;2023-07-29T16:16:39;2.00;;;1.90;;
33266;SDS011;19638;49.080;11.896;2023-07-29T16:20:43;2.15;;;1.80;;
33266;SDS011;19638;49.080;11.896;2023-07-29T16:24:49;2.00;;;1.90;;
33266;SDS011;19638;49.080;11.896;2023-07-29T16:28:52;2.20;;;2.00;;
33266;SDS011;19638;49.080;11.896;2023-07-29T16:32:57;1.80;;;1.60;;
33266;SDS011;19638;49.080;11.896;2023-07-29T16:37:03;2.00;;;1.90;;
33266;SDS011;19638;49.080;11.896;2023-07-29T16:41:09;3.05;;;1.85;;
33266;SDS011;19638;49.080;11.896;2023-07-29T16:45:32;3.85;;;1.80;;
33266;SDS011;19638;49.080;11.896;2023-07-29T16:49:40;6.20;;;1.85;;
33266;SDS011;19638;49.080;11.896;2023-07-29T16:53:44;1.73;;;1.63;;
33266;SDS011;19638;49.080;11.896;2023-07-29T16:57:48;2.00;;;1.90;;
33266;SDS011;19638;49.080;11.896;2023-07-29T17:01:52;1.60;;;1.60;;
33266;SDS011;19638;49.080;11.896;2023-07-29T17:05:55;2.40;;;1.90;;
33266;SDS011;19638;49.080;11.896;2023-07-29T17:09:58;1.98;;;1.88;;
33266;SDS011;19638;49.080;11.896;2023-07-29T17:14:03;2.13;;;1.92;;
33266;SDS011;19638;49.080;11.896;2023-07-29T17:18:06;1.80;;;1.70;;
33266;SDS011;19638;49.080;11.896;2023-07-29T17:22:13;1.88;;;1.77;;
33266;SDS011;19638;49.080;11.896;2023-07-29T17:26:19;3.40;;;1.70;;
33266;SDS011;19638;49.080;11.896;2023-07-29T17:30:24;1.90;;;1.80;;
33266;SDS011;19638;49.080;11.896;2023-07-29T17:34:32;2.10;;;2.00;;
33266;SDS011;19638;49.080;11.896;2023-07-29T17:38:35;2.13;;;2.03;;
33266;SDS011;19638;49.080;11.896;2023-07-29T17:42:39;3.97;;;2.10;;
33266;SDS011;19638;49.080;11.896;2023-07-29T17:46:43;1.80;;;1.73;;
33266;SDS011;19638;49.080;11.896;2023-07-29T17:50:46;1.85;;;1.75;;
33266;SDS011;19638;49.080;11.896;2023-07-29T17:54:54;1.92;;;1.80;;
33266;SDS011;19638;49.080;11.896;2023-07-29T17:59:00;2.05;;;1.95;;
33266;SDS011;19638;49.080;11.896;2023-07-29T18:03:06;2.13;;;2.03;;
33266;SDS011;19638;49.080;11.896;2023-07-29T18:07:10;2.50;;;1.83;;
33266;SDS011;19638;49.080;11.896;2023-07-29T18:11:13;1.95;;;1.80;;
33266;SDS011;19638;49.080;11.896;2023-07-29T18:15:20;2.22;;;2.03;;
33266;SDS011;19638;49.080;11.896;2023-07-29T18:19:27;2.03;;;1.92;;
33266;SDS011;19638;49.080;11.896;2023-07-29T18:23:32;3.60;;;1.92;;
33266;SDS011;19638;49.080;11.896;2023-07-29T18:27:35;2.13;;;2.03;;
33266;SDS011;19638;49.080;11.896;2023-07-29T18:31:39;2.05;;;1.85;;
33266;SDS011;19638;49.080;11.896;2023-07-29T18:35:44;1.90;;;1.80;;
33266;SDS011;19638;49.080;11.896;2023-07-29T18:39:48;3.75;;;2.25;;
33266;SDS011;19638;49.080;11.896;2023-07-29T18:43:51;2.72;;;2.00;;
33266;SDS011;19638;49.080;11.896;2023-07-29T18:47:59;2.03;;;1.92;;
33266;SDS011;19638;49.080;11.896;2023-07-29T18:52:07;1.85;;;1.75;;
33266;SDS011;19638;49.080;11.896;2023-07-29T18:56:13;2.50;;;2.28;;
33266;SDS011;19638;49.080;11.896;2023-07-29T19:00:16;2.25;;;2.10;;
33266;SDS011;19638;49.080;11.896;2023-07-29T19:04:22;2.10;;;1.98;;
33266;SDS011;19638;49.080;11.896;2023-07-29T19:08:27;2.30;;;2.10;;
33266;SDS011;19638;49.080;11.896;2023-07-29T19:12:30;2.42;;;1.95;;
33266;SDS011;19638;49.080;11.896;2023-07-29T19:16:38;3.38;;;2.25;;
33266;SDS011;19638;49.080;11.896;2023-07-29T19:20:41;2.30;;;2.20;;
33266;SDS011;19638;49.080;11.896;2023-07-29T19:24:47;2.70;;;2.50;;
33266;SDS011;19638;49.080;11.896;2023-07-29T19:28:52;4.13;;;2.42;;
33266;SDS011;19638;49.080;11.896;2023-07-29T19:32:59;3.22;;;2.40;;
33266;SDS011;19638;49.080;11.896;2023-07-29T19:37:02;3.53;;;2.80;;
33266;SDS011;19638;49.080;11.896;2023-07-29T19:41:12;2.42;;;2.20;;
33266;SDS011;19638;49.080;11.896;2023-07-29T19:45:17;2.40;;;2.20;;
33266;SDS011;19638;49.080;11.896;2023-07-29T19:49:20;5.72;;;2.67;;
33266;SDS011;19638;49.080;11.896;2023-07-29T19:53:23;3.70;;;3.00;;
33266;SDS011;19638;49.080;11.896;2023-07-29T19:57:28;3.20;;;3.00;;
33266;SDS011;19638;49.080;11.896;2023-07-29T20:01:35;3.45;;;3.10;;
33266;SDS011;19638;49.080;11.896;2023-07-29T20:05:42;3.50;;;2.78;;
33266;SDS011;19638;49.080;11.896;2023-07-29T20:09:45;4.80;;;2.90;;
33266;SDS011;19638;49.080;11.896;2023-07-29T20:13:53;2.90;;;2.67;;
33266;SDS011;19638;49.080;11.896;2023-07-29T20:17:56;3.67;;;2.80;;
33266;SDS011;19638;49.080;11.896;2023-07-29T20:22:05;3.10;;;2.90;;
33266;SDS011;19638;49.080;11.896;2023-07-29T20:26:13;3.72;;;2.85;;
33266;SDS011;19638;49.080;11.896;2023-07-29T20:30:19;2.88;;;2.60;;
33266;SDS011;19638;49.080;11.896;2023-07-29T20:34:24;9.13;;;3.20;;
33266;SDS011;19638;49.080;11.896;2023-07-29T20:38:32;8.18;;;2.90;;
33266;SDS011;19638;49.080;11.896;2023-07-29T20:42:37;3.75;;;2.95;;
33266;SDS011;19638;49.080;11.896;2023-07-29T20:46:42;5.70;;;3.17;;
33266;SDS011;19638;49.080;11.896;2023-07-29T20:50:46;3.20;;;2.90;;
33266;SDS011;19638;49.080;11.896;2023-07-29T20:54:50;8.55;;;5.00;;
33266;SDS011;19638;49.080;11.896;2023-07-29T20:58:54;4.32;;;3.10;;
33266;SDS011;19638;49.080;11.896;2023-07-29T21:03:00;4.60;;;3.05;;
33266;SDS011;19638;49.080;11.896;2023-07-29T21:07:09;4.32;;;3.72;;
33266;SDS011;19638;49.080;11.896;2023-07-29T21:11:19;5.90;;;3.47;;
33266;SDS011;19638;49.080;11.896;2023-07-29T21:15:22;4.22;;;3.65;;
33266;SDS011;19638;49.080;11.896;2023-07-29T21:19:26;4.60;;;3.20;;
33266;SDS011;19638;49.080;11.896;2023-07-29T21:23:29;3.72;;;3.28;;
33266;SDS011;19638;49.080;11.896;2023-07-29T21:27:35;4.70;;;3.17;;
33266;SDS011;19638;49.080;11.896;2023-07-29T21:31:40;4.50;;;3.40;;
33266;SDS011;19638;49.080;11.896;2023-07-29T21:35:46;6.20;;;3.67;;
33266;SDS011;19638;49.080;11.896;2023-07-29T21:39:51;5.43;;;3.58;;
33266;SDS011;19638;49.080;11.896;2023-07-29T21:43:58;7.82;;;4.53;;
33266;SDS011;19638;49.080;11.896;2023-07-29T21:48:01;16.42;;;4.30;;
33266;SDS011;19638;49.080;11.896;2023-07-29T21:52:06;9.02;;;4.28;;
33266;SDS011;19638;49.080;11.896;2023-07-29T21:56:11;7.28;;;4.40;;
33266;SDS011;19638;49.080;11.896;2023-07-29T22:00:19;12.40;;;5.40;;
33266;SDS011;19638;49.080;11.896;2023-07-29T22:04:22;8.02;;;4.97;;
33266;SDS011;19638;49.080;11.896;2023-07-29T22:08:27;8.93;;;4.70;;
33266;SDS011;19638;49.080;11.896;2023-07-29T22:12:31;9.38;;;5.35;;
33266;SDS011;19638;49.080;11.896;2023-07-29T22:16:35;9.32;;;5.13;;
33266;SDS011;19638;49.080;11.896;2023-07-29T22:20:38;8.38;;;4.65;;
33266;SDS011;19638;49.080;11.896;2023-07-29T22:24:45;6.93;;;5.00;;
33266;SDS011;19638;49.080;11.896;2023-07-29T22:28:48;8.88;;;5.60;;
33266;SDS011;19638;49.080;11.896;2023-07-29T22:32:54;9.02;;;5.40;;
33266;SDS011;19638;49.080;11.896;2023-07-29T22:37:00;11.70;;;6.10;;
33266;SDS011;19638;49.080;11.896;2023-07-29T22:41:09;12.27;;;5.50;;
33266;SDS011;19638;49.080;11.896;2023-07-29T22:45:15;13.23;;;5.82;;
33266;SDS011;19638;49.080;11.896;2023-07-29T22:49:20;12.15;;;5.82;;
33266;SDS011;19638;49.080;11.896;2023-07-29T22:53:26;10.18;;;5.72;;
33266;SDS011;19638;49.080;11.896;2023-07-29T22:57:33;12.10;;;5.78;;
33266;SDS011;19638;49.080;11.896;2023-07-29T23:01:36;49.25;;;6.68;;
33266;SDS011;19638;49.080;11.896;2023-07-29T23:05:39;22.42;;;6.97;;
33266;SDS011;19638;49.080;11.896;2023-07-29T23:09:46;16.52;;;6.70;;
33266;SDS011;19638;49.080;11.896;2023-07-29T23:13:50;21.58;;;6.15;;
33266;SDS011;19638;49.080;11.896;2023-07-29T23:17:54;9.13;;;5.80;;
33266;SDS011;19638;49.080;11.896;2023-07-29T23:21:59;9.93;;;5.72;;
33266;SDS011;19638;49.080;11.896;2023-07-29T23:26:04;12.00;;;5.30;;
33266;SDS011;19638;49.080;11.896;2023-07-29T23:30:09;10.75;;;5.22;;
33266;SDS011;19638;49.080;11.896;2023-07-29T23:34:15;8.73;;;5.68;;
33266;SDS011;19638;49.080;11.896;2023-07-29T23:38:23;13.52;;;5.90;;
33266;SDS011;19638;49.080;11.896;2023-07-29T23:42:33;10.10;;;6.35;;
33266;SDS011;19638;49.080;11.896;2023-07-29T23:46:41;13.15;;;6.28;;
33266;SDS011;19638;49.080;11.896;2023-07-29T23:50:49;12.30;;;6.45;;
33266;SDS011;19638;49.080;11.896;2023-07-29T23:54:52;12.13;;;6.90;;
33266;SDS011;19638;49.080;11.896;2023-07-29T23:58:57;11.18;;;6.68;;
